Time;durP1;ratioP1;P1;durP2;ratioP2;P2;SDS_P1;SDS_P2;PMS_P1;PMS_P2;Temp;Humidity;BMP_temperature;BMP_pressure;BME280_temperature;BME280_humidity;BME280_pressure;Samples;Min_cycle;Max_cycle;Signal;HPM_P1;HPM_P2
2023/09/23 00:02:42;;;;;;;12.95;5.25;;;;;;;24.74;68.45;101062.53;20870069;28;20067;-72
2023/09/23 00:13:05;;;;;;;10.40;5.40;;;;;;;24.73;68.55;101060.75;20869648;28;20053;-72
2023/09/23 00:23:30;;;;;;;10.18;5.70;;;;;;;24.72;68.50;101058.13;20874584;28;20041;-72
2023/09/23 00:33:53;;;;;;;10.73;5.15;;;;;;;24.71;69.21;101048.25;20868180;28;20080;-72
2023/09/23 00:44:18;;;;;;;10.95;5.40;;;;;;;24.65;70.49;101056.59;20867254;28;20045;-71
2023/09/23 00:54:46;;;;;;;11.10;4.80;;;;;;;24.64;70.88;101050.28;20873589;28;20497;-72
2023/09/23 01:05:10;;;;;;;13.23;4.95;;;;;;;24.63;72.72;101051.22;20896430;28;20053;-72
2023/09/23 01:15:34;;;;;;;13.48;5.50;;;;;;;24.67;74.13;101052.91;20937829;28;20053;-72
2023/09/23 01:25:59;;;;;;;19.02;5.95;;;;;;;24.65;75.44;101040.38;20888405;28;20040;-72
2023/09/23 01:36:21;;;;;;;12.23;4.95;;;;;;;24.52;76.44;101051.66;20886063;28;20056;-72
2023/09/23 01:46:46;;;;;;;13.27;5.00;;;;;;;24.56;76.43;101042.47;20881984;28;20037;-72
2023/09/23 01:57:15;;;;;;;11.57;4.97;;;;;;;24.48;76.80;101039.19;20879802;28;20053;-72
2023/09/23 02:07:41;;;;;;;11.32;5.22;;;;;;;24.41;77.33;101044.91;20869830;28;20056;-72
2023/09/23 02:18:04;;;;;;;14.98;5.53;;;;;;;24.37;77.43;101046.81;20878839;28;20057;-72
2023/09/23 02:28:28;;;;;;;11.40;5.57;;;;;;;24.31;78.45;101047.03;20880095;28;20048;-72
2023/09/23 02:38:51;;;;;;;12.07;5.80;;;;;;;24.13;80.26;101044.97;20863730;28;20045;-72
2023/09/23 02:49:15;;;;;;;14.25;6.00;;;;;;;24.00;81.33;101046.34;20867331;28;20090;-72
2023/09/23 02:59:41;;;;;;;12.30;5.70;;;;;;;23.83;83.00;101049.59;20895538;28;20153;-72
2023/09/23 03:10:12;;;;;;;13.27;5.82;;;;;;;23.66;85.14;101049.31;20896234;28;20393;-72
2023/09/23 03:20:40;;;;;;;12.40;5.35;;;;;;;23.82;84.17;101047.88;20880598;28;20055;-72
2023/09/23 03:31:08;;;;;;;13.20;5.43;;;;;;;23.69;85.28;101047.41;20862043;28;20519;-72
2023/09/23 03:41:34;;;;;;;10.95;5.55;;;;;;;23.57;86.79;101060.41;20859667;28;20052;-72
2023/09/23 03:51:59;;;;;;;11.35;6.60;;;;;;;23.38;88.95;101069.06;20865126;28;20079;-72
2023/09/23 04:02:22;;;;;;;12.98;5.50;;;;;;;23.37;89.28;101077.19;20860847;28;20040;-71
2023/09/23 04:12:47;;;;;;;13.63;5.75;;;;;;;23.29;89.72;101074.75;20874428;28;20041;-72
2023/09/23 04:23:09;;;;;;;14.30;5.65;;;;;;;23.16;91.99;101083.28;20876275;28;20179;-72
2023/09/23 04:33:34;;;;;;;23.02;6.18;;;;;;;23.31;94.01;101082.78;20877360;28;20049;-72
2023/09/23 04:43:57;;;;;;;16.13;5.97;;;;;;;23.79;94.54;101085.72;20888405;28;20044;-72
2023/09/23 04:54:22;;;;;;;14.05;5.22;;;;;;;24.23;96.16;101089.59;20889082;28;20053;-72
2023/09/23 05:04:46;;;;;;;16.45;4.82;;;;;;;24.68;95.26;101100.53;20865982;28;20056;-72
2023/09/23 05:15:14;;;;;;;13.90;5.05;;;;;;;25.42;94.87;101094.09;20886650;28;20053;-71
2023/09/23 05:25:41;;;;;;;9.88;4.20;;;;;;;26.11;90.78;101100.25;20864535;28;20065;-72
2023/09/23 05:36:06;;;;;;;10.30;4.25;;;;;;;27.02;86.45;101114.25;20820023;28;20057;-72
2023/09/23 05:46:28;;;;;;;16.67;4.53;;;;;;;27.90;75.92;101112.63;20879866;28;20037;-72
2023/09/23 05:56:53;;;;;;;13.02;4.20;;;;;;;28.63;69.31;101104.28;20877771;28;20049;-72
2023/09/23 06:07:15;;;;;;;13.13;3.80;;;;;;;29.44;53.85;101114.31;20868020;28;20183;-72
2023/09/23 06:17:40;;;;;;;10.98;2.83;;;;;;;30.24;49.62;101118.69;20888934;28;20059;-72
2023/09/23 06:28:03;;;;;;;10.95;3.28;;;;;;;31.00;46.25;101119.41;20889025;28;20049;-70
2023/09/23 06:38:28;;;;;;;8.85;3.22;;;;;;;31.67;43.58;101130.50;20875817;28;20056;-69
2023/09/23 06:48:50;;;;;;;11.82;3.28;;;;;;;32.39;41.87;101129.22;20869859;28;20544;-70
2023/09/23 06:59:15;;;;;;;12.68;3.40;;;;;;;32.87;38.78;101145.94;20874294;28;20141;-69
2023/09/23 07:09:37;;;;;;;10.37;2.87;;;;;;;33.32;37.13;101140.88;20882463;28;20049;-69
2023/09/23 07:20:02;;;;;;;11.02;3.17;;;;;;;33.63;36.65;101140.34;20859127;28;20106;-70
2023/09/23 07:30:24;;;;;;;11.77;2.58;;;;;;;34.20;35.12;101135.06;20861138;28;20041;-71
2023/09/23 07:40:50;;;;;;;11.88;3.08;;;;;;;34.56;33.66;101139.59;20850666;28;20037;-71
2023/09/23 07:51:13;;;;;;;9.70;2.60;;;;;;;34.94;32.40;101154.91;20864626;28;20052;-71
2023/09/23 08:01:37;;;;;;;12.23;2.60;;;;;;;35.21;31.52;101147.22;20877017;28;20095;-70
2023/09/23 08:12:00;;;;;;;12.63;3.53;;;;;;;35.56;30.97;101145.22;20881375;28;20051;-70
2023/09/23 08:22:24;;;;;;;14.85;3.38;;;;;;;35.99;29.84;101149.88;20885176;28;20457;-70
2023/09/23 08:32:47;;;;;;;14.00;3.30;;;;;;;36.26;29.97;101144.78;20875618;28;20086;-71
2023/09/23 08:43:12;;;;;;;13.77;2.73;;;;;;;36.52;29.25;101137.03;20880417;28;20521;-71
2023/09/23 08:53:39;;;;;;;10.52;2.75;;;;;;;36.76;27.97;101128.50;20955486;28;20499;-71
2023/09/23 09:04:04;;;;;;;12.85;2.80;;;;;;;37.02;27.57;101121.56;20921306;28;20080;-71
2023/09/23 09:14:27;;;;;;;15.75;2.97;;;;;;;37.02;27.52;101124.31;20955194;28;20049;-71
2023/09/23 09:24:52;;;;;;;16.50;3.40;;;;;;;37.08;27.58;101117.41;20885508;28;20536;-71
2023/09/23 09:35:16;;;;;;;14.07;2.90;;;;;;;37.19;27.04;101117.31;20881907;28;20045;-71
2023/09/23 09:45:42;;;;;;;10.25;2.80;;;;;;;37.56;26.68;101103.78;20855594;28;20061;-71
2023/09/23 09:56:06;;;;;;;10.02;2.80;;;;;;;37.83;26.32;101108.66;20819322;28;20676;-70
2023/09/23 10:06:42;;;;;;;10.77;2.58;;;;;;;38.04;26.08;101100.28;20863869;28;20049;-71
2023/09/23 10:17:05;;;;;;;12.10;3.03;;;;;;;37.86;26.27;101101.00;20872541;28;20053;-71
2023/09/23 10:27:31;;;;;;;10.57;2.90;;;;;;;37.64;26.20;101098.47;20859981;28;20077;-71
2023/09/23 10:37:53;;;;;;;12.10;3.63;;;;;;;37.35;26.28;101095.63;20858342;28;20508;-71
2023/09/23 10:48:18;;;;;;;10.45;2.90;;;;;;;37.01;26.73;101078.53;20832126;28;20072;-71
2023/09/23 10:58:41;;;;;;;10.60;2.80;;;;;;;36.67;26.80;101085.31;20872121;28;20063;-71
2023/09/23 11:09:07;;;;;;;13.63;3.13;;;;;;;36.21;27.22;101067.31;20836593;28;20052;-71
2023/09/23 11:19:30;;;;;;;17.95;3.88;;;;;;;35.91;28.13;101062.53;20866765;28;20459;-71
2023/09/23 11:29:55;;;;;;;13.02;2.80;;;;;;;35.76;28.31;101057.50;20904422;28;20049;-71
2023/09/23 11:40:18;;;;;;;10.25;3.20;;;;;;;35.52;28.40;101044.78;20888754;28;20052;-71
2023/09/23 11:50:42;;;;;;;9.43;2.78;;;;;;;35.42;28.22;101032.84;20863597;28;20110;-71
2023/09/23 12:01:06;;;;;;;11.20;3.58;;;;;;;35.34;28.36;101026.25;20889103;28;20573;-71
2023/09/23 12:11:31;;;;;;;10.45;2.80;;;;;;;35.11;27.82;101017.16;20863178;28;20068;-71
2023/09/23 12:21:53;;;;;;;13.02;2.88;;;;;;;34.98;27.86;101002.72;20844056;28;20209;-71
2023/09/23 12:32:18;;;;;;;17.55;3.40;;;;;;;34.93;28.31;101004.94;20874801;28;20041;-71
2023/09/23 12:42:41;;;;;;;10.43;3.08;;;;;;;34.88;28.61;101005.31;20855674;28;20434;-70
2023/09/23 12:53:05;;;;;;;13.70;2.92;;;;;;;34.62;28.58;100999.19;20895724;28;20057;-71
2023/09/23 13:03:28;;;;;;;12.50;3.50;;;;;;;34.47;28.61;100994.06;20888963;28;20053;-71
2023/09/23 13:13:52;;;;;;;12.70;2.90;;;;;;;34.36;28.83;100994.94;20886232;28;20053;-71
2023/09/23 13:24:15;;;;;;;14.25;3.33;;;;;;;34.10;29.53;100985.16;20846225;28;20046;-71
2023/09/23 13:34:40;;;;;;;12.80;3.35;;;;;;;33.89;29.58;100983.09;20860821;28;20416;-70
2023/09/23 13:45:04;;;;;;;10.73;2.67;;;;;;;33.65;29.52;100974.03;20866252;28;20052;-71
2023/09/23 13:55:29;;;;;;;13.25;3.40;;;;;;;33.49;29.83;100981.66;20872902;28;20132;-71
2023/09/23 14:05:52;;;;;;;13.18;3.55;;;;;;;33.42;31.52;100977.66;20875058;28;20668;-71
2023/09/23 14:16:16;;;;;;;10.45;2.80;;;;;;;32.89;32.85;100973.44;20817243;28;20046;-71
2023/09/23 14:26:38;;;;;;;13.85;3.88;;;;;;;32.58;34.62;100977.53;20821206;28;20181;-70
2023/09/23 14:37:05;;;;;;;12.63;4.53;;;;;;;32.38;34.18;100979.84;20841103;28;20055;-71
2023/09/23 14:47:27;;;;;;;13.23;3.53;;;;;;;31.98;34.56;100981.78;20810826;28;20045;-71
2023/09/23 14:57:52;;;;;;;11.57;3.05;;;;;;;31.76;34.72;100967.00;20873842;28;20049;-70
2023/09/23 15:08:15;;;;;;;18.50;3.97;;;;;;;31.13;37.15;100960.31;20770767;28;20058;-70
2023/09/23 15:18:39;;;;;;;16.15;4.07;;;;;;;30.62;37.99;100959.16;20866193;28;20588;-70
2023/09/23 15:29:02;;;;;;;17.08;3.97;;;;;;;30.46;38.31;100941.97;20872767;28;20051;-70
2023/09/23 15:39:26;;;;;;;15.23;3.47;;;;;;;30.25;38.44;100949.69;20864530;28;20126;-69
2023/09/23 15:49:49;;;;;;;17.70;3.50;;;;;;;30.12;38.32;100946.00;20872234;28;20378;-68
2023/09/23 16:00:15;;;;;;;16.80;3.75;;;;;;;29.93;38.64;100940.78;20865917;28;20077;-69
2023/09/23 16:10:37;;;;;;;15.45;4.32;;;;;;;29.70;38.97;100944.03;20865653;28;20053;-69
2023/09/23 16:21:01;;;;;;;16.33;3.90;;;;;;;29.42;38.94;100961.13;20883937;28;20512;-70
2023/09/23 16:31:24;;;;;;;20.35;3.78;;;;;;;29.24;39.57;100962.19;20893536;28;20707;-69
2023/09/23 16:41:48;;;;;;;13.00;3.75;;;;;;;29.12;39.50;100952.94;20882069;28;20038;-69
2023/09/23 16:52:11;;;;;;;12.80;6.03;;;;;;;29.03;39.60;100955.28;20850841;28;20056;-69
2023/09/23 17:02:35;;;;;;;17.50;7.68;;;;;;;28.87;39.56;100949.88;20885134;28;20060;-69
2023/09/23 17:12:57;;;;;;;23.88;10.73;;;;;;;28.71;40.17;100948.94;20854430;28;20505;-69
2023/09/23 17:23:22;;;;;;;23.92;9.35;;;;;;;28.53;40.44;100950.88;20891014;28;20045;-69
2023/09/23 17:33:46;;;;;;;26.75;12.80;;;;;;;28.32;41.16;100966.50;20874811;28;20132;-69
2023/09/23 17:44:10;;;;;;;23.58;8.98;;;;;;;28.08;41.87;100970.53;20873834;28;20053;-69
2023/09/23 17:54:33;;;;;;;17.73;6.35;;;;;;;27.75;42.40;100976.78;20887935;28;20056;-69
2023/09/23 18:04:57;;;;;;;14.95;5.03;;;;;;;27.69;42.95;100978.94;20887660;28;20099;-69
2023/09/23 18:15:20;;;;;;;14.57;4.07;;;;;;;27.29;43.14;100985.47;20887111;28;20072;-69
2023/09/23 18:25:45;;;;;;;17.88;5.50;;;;;;;27.01;43.98;100991.38;20884900;28;20052;-69
2023/09/23 18:36:08;;;;;;;22.17;8.90;;;;;;;26.78;44.53;100981.59;20872655;28;20053;-69
2023/09/23 18:46:33;;;;;;;20.00;5.25;;;;;;;26.63;44.64;100966.09;20871245;28;20413;-68
2023/09/23 18:56:56;;;;;;;14.02;4.25;;;;;;;26.29;45.70;100969.50;20897451;28;20132;-68
2023/09/23 19:07:20;;;;;;;16.83;3.80;;;;;;;26.16;45.86;100971.00;20833232;28;20092;-69
2023/09/23 19:17:43;;;;;;;19.00;4.60;;;;;;;25.96;46.59;100977.28;20854526;28;20107;-68
2023/09/23 19:28:07;;;;;;;31.95;11.48;;;;;;;25.85;47.50;100984.13;20866540;28;20061;-68
2023/09/23 19:38:30;;;;;;;14.30;6.43;;;;;;;25.80;47.40;100973.50;20868001;28;20060;-68
2023/09/23 19:48:55;;;;;;;15.55;4.80;;;;;;;25.50;48.11;100972.09;20886282;28;20156;-68
2023/09/23 19:59:19;;;;;;;17.50;4.75;;;;;;;25.41;49.79;100971.53;20864504;28;20056;-68
2023/09/23 20:09:43;;;;;;;16.15;4.18;;;;;;;25.49;50.20;100964.94;20860795;28;20563;-67
2023/09/23 20:20:09;;;;;;;18.23;4.15;;;;;;;25.35;51.18;100961.00;20877017;28;20045;-67
2023/09/23 20:30:33;;;;;;;20.23;4.80;;;;;;;25.57;50.03;100960.06;20871471;28;20455;-67
2023/09/23 20:41:02;;;;;;;16.17;4.07;;;;;;;25.63;49.27;100954.44;20877561;28;20049;-67
2023/09/23 20:51:27;;;;;;;16.27;4.00;;;;;;;25.73;49.15;100961.22;20864707;28;20674;-67
2023/09/23 21:01:50;;;;;;;19.67;4.35;;;;;;;25.73;49.69;100943.13;20886556;28;20048;-67
2023/09/23 21:12:13;;;;;;;17.92;4.88;;;;;;;25.73;53.09;100937.72;20883400;28;20045;-67
2023/09/23 21:22:36;;;;;;;16.70;4.05;;;;;;;25.66;55.07;100935.38;20881431;28;20048;-67
2023/09/23 21:33:00;;;;;;;16.13;4.30;;;;;;;25.51;56.47;100928.78;20855212;28;20069;-67
2023/09/23 21:43:23;;;;;;;15.85;4.43;;;;;;;25.20;60.91;100920.22;20900272;28;20444;-68
2023/09/23 21:53:48;;;;;;;16.90;4.93;;;;;;;24.98;62.70;100915.72;20890485;28;20642;-69
2023/09/23 22:04:10;;;;;;;13.07;4.75;;;;;;;25.07;62.08;100900.94;20896778;28;20413;-68
2023/09/23 22:14:35;;;;;;;19.45;5.10;;;;;;;24.91;64.40;100905.22;20874448;28;20049;-67
2023/09/23 22:24:57;;;;;;;20.15;4.95;;;;;;;24.75;65.72;100915.72;20900768;28;20444;-67
2023/09/23 22:35:24;;;;;;;12.30;4.88;;;;;;;24.51;68.70;100916.72;20878490;28;20489;-67
2023/09/23 22:45:46;;;;;;;19.95;4.63;;;;;;;24.43;68.13;100908.91;20868478;28;20148;-67
2023/09/23 22:56:11;;;;;;;16.05;3.75;;;;;;;24.19;71.03;100917.97;20885054;28;20055;-67
2023/09/23 23:06:33;;;;;;;16.00;3.60;;;;;;;24.18;70.24;100906.25;20884866;28;20044;-67
2023/09/23 23:16:57;;;;;;;17.73;5.50;;;;;;;24.03;72.77;100895.16;20880054;28;20076;-67
2023/09/23 23:27:20;;;;;;;11.75;3.92;;;;;;;24.04;72.49;100902.31;20861316;28;20049;-68
2023/09/23 23:37:47;;;;;;;25.17;4.80;;;;;;;23.99;73.98;100874.63;20860213;28;20037;-67
2023/09/23 23:48:09;;;;;;;19.13;4.13;;;;;;;23.87;75.15;100878.69;20872951;28;20045;-67
2023/09/23 23:58:36;;;;;;;17.63;4.18;;;;;;;23.91;74.66;100857.88;20895107;28;20508;-67
